createdAt,value
2018-07-09T00:03:11.241Z,96.70
2018-07-09T00:07:14.024Z,96.60
2018-07-09T00:11:16.950Z,97.30
2018-07-09T00:15:19.833Z,97.20
2018-07-09T00:19:22.773Z,97.00
2018-07-09T00:23:25.736Z,95.90
2018-07-09T00:27:28.635Z,96.60
2018-07-09T00:31:31.668Z,96.40
2018-07-09T00:35:34.638Z,96.90
2018-07-09T00:39:37.541Z,97.60
2018-07-09T00:43:40.398Z,97.40
2018-07-09T00:47:43.342Z,97.20
2018-07-09T00:51:46.752Z,97.60
2018-07-09T00:55:49.667Z,98.00
2018-07-09T00:59:52.730Z,97.30
2018-07-09T01:03:55.522Z,96.30
2018-07-09T01:07:58.401Z,96.30
2018-07-09T01:12:08.794Z,95.90
2018-07-09T01:16:11.968Z,94.50
2018-07-09T01:20:14.902Z,94.50
2018-07-09T01:24:17.773Z,95.30
2018-07-09T01:28:20.727Z,96.30
2018-07-09T01:32:23.558Z,97.20
2018-07-09T01:36:26.431Z,97.00
2018-07-09T01:40:29.219Z,96.10
2018-07-09T01:44:32.130Z,95.20
2018-07-09T01:48:35.004Z,95.50
2018-07-09T01:52:37.841Z,95.90
2018-07-09T01:56:40.656Z,96.60
2018-07-09T02:00:43.538Z,97.40
2018-07-09T02:04:46.357Z,97.50
2018-07-09T02:08:49.244Z,98.20
2018-07-09T02:12:52.137Z,97.80
2018-07-09T02:16:54.981Z,97.50
2018-07-09T02:20:57.838Z,96.20
2018-07-09T02:25:00.669Z,96.80
2018-07-09T02:29:03.471Z,97.30
2018-07-09T02:33:06.359Z,97.00
2018-07-09T02:37:09.203Z,96.50
2018-07-09T02:41:12.033Z,96.70
2018-07-09T02:45:15.140Z,97.40
2018-07-09T02:49:18.240Z,97.00
2018-07-09T02:53:21.083Z,98.50
2018-07-09T02:57:23.941Z,98.90
2018-07-09T03:01:26.833Z,98.60
2018-07-09T03:05:29.712Z,98.40
2018-07-09T03:09:32.826Z,98.90
2018-07-09T03:13:35.762Z,99.10
2018-07-09T03:17:38.607Z,98.40
2018-07-09T03:21:48.583Z,99.30
2018-07-09T03:25:53.600Z,99.70
2018-07-09T03:29:56.435Z,99.90
2018-07-09T03:33:59.309Z,99.60
2018-07-09T03:38:02.135Z,99.90
2018-07-09T03:42:05.034Z,98.80
2018-07-09T03:46:07.935Z,99.90
2018-07-09T03:50:10.774Z,99.90
2018-07-09T03:54:13.718Z,99.90
2018-07-09T03:58:16.564Z,97.90
2018-07-09T04:06:22.243Z,98.00
2018-07-09T04:10:25.090Z,98.20
2018-07-09T04:14:27.891Z,99.00
2018-07-09T04:18:30.708Z,99.10
2018-07-09T04:22:33.573Z,98.50
2018-07-09T04:26:36.358Z,98.20
2018-07-09T04:30:39.162Z,98.70
2018-07-09T04:34:41.989Z,99.00
2018-07-09T04:38:44.788Z,98.20
2018-07-09T04:42:47.631Z,99.20
2018-07-09T04:46:50.486Z,99.90
2018-07-09T04:50:53.353Z,99.90
2018-07-09T04:54:56.170Z,99.60
2018-07-09T04:58:58.987Z,98.70
2018-07-09T05:03:01.876Z,99.80
2018-07-09T05:07:04.841Z,99.90
2018-07-09T05:11:07.716Z,99.90
2018-07-09T05:15:10.508Z,99.90
2018-07-09T05:19:13.307Z,99.20
2018-07-09T05:23:16.145Z,99.70
2018-07-09T05:27:18.916Z,99.90
2018-07-09T05:31:21.777Z,99.30
2018-07-09T05:35:24.683Z,98.20
2018-07-09T05:39:27.728Z,98.40
2018-07-09T05:43:31.180Z,99.90
2018-07-09T05:47:34.969Z,99.90
2018-07-09T05:51:37.886Z,99.90
2018-07-09T05:55:40.687Z,99.90
2018-07-09T05:59:43.937Z,99.70
2018-07-09T06:03:46.879Z,99.40
2018-07-09T06:07:49.806Z,98.20
2018-07-09T06:11:52.690Z,98.70
2018-07-09T06:15:55.572Z,99.40
2018-07-09T06:19:58.415Z,99.90
2018-07-09T06:24:01.659Z,99.90
2018-07-09T06:32:08.020Z,99.90
2018-07-09T06:40:13.708Z,99.90
2018-07-09T06:44:16.642Z,99.90
2018-07-09T06:48:19.596Z,99.90
2018-07-09T06:52:22.504Z,99.90
2018-07-09T06:56:25.541Z,99.90
2018-07-09T07:00:28.380Z,99.90
2018-07-09T07:04:31.220Z,99.90
2018-07-09T07:08:34.195Z,99.90
2018-07-09T07:12:37.058Z,99.90
2018-07-09T07:16:39.960Z,99.90
2018-07-09T07:20:42.876Z,99.80
2018-07-09T07:24:45.744Z,99.50
2018-07-09T07:28:48.667Z,99.40
2018-07-09T07:32:51.676Z,98.30
2018-07-09T07:36:54.564Z,98.00
2018-07-09T07:40:57.425Z,96.60
2018-07-09T07:45:01.066Z,96.10
2018-07-09T07:49:03.958Z,96.90
2018-07-09T07:53:06.796Z,97.60
2018-07-09T07:57:10.144Z,97.40
2018-07-09T08:01:12.974Z,96.80
2018-07-09T08:05:15.933Z,96.50
2018-07-09T08:09:19.095Z,96.70
2018-07-09T08:13:29.350Z,96.40
2018-07-09T08:17:25.140Z,96.90
